sensor_id;sensor_type;location;lat;lon;timestamp;pressure;altitude;pressure_sealevel;temperature
75273;BMP280;63869;52.344;16.928;2023-02-28T00:01:23;102292.78;;;2.37
75273;BMP280;63869;52.344;16.928;2023-02-28T00:03:49;102293.38;;;2.34
75273;BMP280;63869;52.344;16.928;2023-02-28T00:06:14;102287.22;;;2.38
75273;BMP280;63869;52.344;16.928;2023-02-28T00:08:40;102293.75;;;2.41
75273;BMP280;63869;52.344;16.928;2023-02-28T00:11:07;102286.91;;;2.40
75273;BMP280;63869;52.344;16.928;2023-02-28T00:13:34;102293.91;;;2.44
75273;BMP280;63869;52.344;16.928;2023-02-28T00:16:06;102288.31;;;2.46
75273;BMP280;63869;52.344;16.928;2023-02-28T00:18:32;102290.81;;;2.42
75273;BMP280;63869;52.344;16.928;2023-02-28T00:20:58;102294.69;;;2.45
75273;BMP280;63869;52.344;16.928;2023-02-28T00:23:24;102282.88;;;2.42
75273;BMP280;63869;52.344;16.928;2023-02-28T00:25:50;102284.75;;;2.42
75273;BMP280;63869;52.344;16.928;2023-02-28T00:28:16;102285.34;;;2.39
75273;BMP280;63869;52.344;16.928;2023-02-28T00:30:41;102286.72;;;2.36
75273;BMP280;63869;52.344;16.928;2023-02-28T00:33:06;102292.59;;;2.33
75273;BMP280;63869;52.344;16.928;2023-02-28T00:35:32;102289.81;;;2.30
75273;BMP280;63869;52.344;16.928;2023-02-28T00:37:57;102287.59;;;2.23
75273;BMP280;63869;52.344;16.928;2023-02-28T00:40:22;102295.81;;;2.22
75273;BMP280;63869;52.344;16.928;2023-02-28T00:42:47;102289.09;;;2.16
75273;BMP280;63869;52.344;16.928;2023-02-28T00:45:13;102290.00;;;2.11
75273;BMP280;63869;52.344;16.928;2023-02-28T00:47:38;102293.72;;;2.10
75273;BMP280;63869;52.344;16.928;2023-02-28T00:50:04;102293.53;;;2.06
75273;BMP280;63869;52.344;16.928;2023-02-28T00:52:30;102304.66;;;2.03
75273;BMP280;63869;52.344;16.928;2023-02-28T00:54:55;102293.16;;;1.99
75273;BMP280;63869;52.344;16.928;2023-02-28T00:57:21;102290.66;;;1.94
75273;BMP280;63869;52.344;16.928;2023-02-28T00:59:46;102294.97;;;1.90
75273;BMP280;63869;52.344;16.928;2023-02-28T01:02:11;102287.78;;;1.82
75273;BMP280;63869;52.344;16.928;2023-02-28T01:04:37;102301.44;;;1.84
75273;BMP280;63869;52.344;16.928;2023-02-28T01:07:02;102297.84;;;1.80
75273;BMP280;63869;52.344;16.928;2023-02-28T01:09:28;102301.06;;;1.77
75273;BMP280;63869;52.344;16.928;2023-02-28T01:11:53;102286.44;;;1.71
75273;BMP280;63869;52.344;16.928;2023-02-28T01:14:19;102292.31;;;1.68
75273;BMP280;63869;52.344;16.928;2023-02-28T01:16:44;102287.81;;;1.68
75273;BMP280;63869;52.344;16.928;2023-02-28T01:19:10;102296.00;;;1.67
75273;BMP280;63869;52.344;16.928;2023-02-28T01:21:35;102294.75;;;1.64
75273;BMP280;63869;52.344;16.928;2023-02-28T01:24:01;102286.97;;;1.59
75273;BMP280;63869;52.344;16.928;2023-02-28T01:26:27;102290.69;;;1.58
75273;BMP280;63869;52.344;16.928;2023-02-28T01:28:53;102284.59;;;1.58
75273;BMP280;63869;52.344;16.928;2023-02-28T01:31:19;102279.44;;;1.52
75273;BMP280;63869;52.344;16.928;2023-02-28T01:33:45;102282.06;;;1.52
75273;BMP280;63869;52.344;16.928;2023-02-28T01:36:17;102284.22;;;1.50
75273;BMP280;63869;52.344;16.928;2023-02-28T01:38:43;102280.72;;;1.41
75273;BMP280;63869;52.344;16.928;2023-02-28T01:41:16;102281.22;;;1.43
75273;BMP280;63869;52.344;16.928;2023-02-28T01:46:07;102274.00;;;1.35
75273;BMP280;63869;52.344;16.928;2023-02-28T01:48:36;102281.91;;;1.35
75273;BMP280;63869;52.344;16.928;2023-02-28T01:51:06;102285.63;;;1.34
75273;BMP280;63869;52.344;16.928;2023-02-28T01:53:42;102281.75;;;1.32
75273;BMP280;63869;52.344;16.928;2023-02-28T01:56:11;102280.50;;;1.29
75273;BMP280;63869;52.344;16.928;2023-02-28T01:58:38;102282.91;;;1.26
75273;BMP280;63869;52.344;16.928;2023-02-28T02:01:03;102288.47;;;1.24
75273;BMP280;63869;52.344;16.928;2023-02-28T02:03:30;102277.47;;;1.22
75273;BMP280;63869;52.344;16.928;2023-02-28T02:05:56;102273.25;;;1.21
75273;BMP280;63869;52.344;16.928;2023-02-28T02:08:24;102273.06;;;1.17
75273;BMP280;63869;52.344;16.928;2023-02-28T02:10:52;102271.53;;;1.16
75273;BMP280;63869;52.344;16.928;2023-02-28T02:18:58;102270.94;;;1.06
75273;BMP280;63869;52.344;16.928;2023-02-28T02:21:36;102270.72;;;1.02
75273;BMP280;63869;52.344;16.928;2023-02-28T02:24:30;102269.47;;;1.00
75273;BMP280;63869;52.344;16.928;2023-02-28T02:27:22;102281.09;;;0.99
75273;BMP280;63869;52.344;16.928;2023-02-28T02:38:39;102279.41;;;0.89
75273;BMP280;63869;52.344;16.928;2023-02-28T02:43:57;102271.13;;;0.82
75273;BMP280;63869;52.344;16.928;2023-02-28T02:46:31;102271.91;;;0.82
75273;BMP280;63869;52.344;16.928;2023-02-28T02:49:00;102274.25;;;0.84
75273;BMP280;63869;52.344;16.928;2023-02-28T02:51:27;102277.94;;;0.83
75273;BMP280;63869;52.344;16.928;2023-02-28T02:54:02;102265.63;;;0.78
75273;BMP280;63869;52.344;16.928;2023-02-28T02:56:31;102264.84;;;0.78
75273;BMP280;63869;52.344;16.928;2023-02-28T02:59:04;102270.91;;;0.78
75273;BMP280;63869;52.344;16.928;2023-02-28T03:01:33;102260.97;;;0.75
75273;BMP280;63869;52.344;16.928;2023-02-28T03:04:06;102268.56;;;0.77
75273;BMP280;63869;52.344;16.928;2023-02-28T03:06:32;102264.19;;;0.72
75273;BMP280;63869;52.344;16.928;2023-02-28T03:08:59;102264.97;;;0.73
75273;BMP280;63869;52.344;16.928;2023-02-28T03:11:25;102271.00;;;0.73
75273;BMP280;63869;52.344;16.928;2023-02-28T03:14:04;102267.59;;;0.73
75273;BMP280;63869;52.344;16.928;2023-02-28T03:16:56;102271.28;;;0.72
75273;BMP280;63869;52.344;16.928;2023-02-28T03:19:33;102267.97;;;0.66
75273;BMP280;63869;52.344;16.928;2023-02-28T03:22:14;102271.41;;;0.67
75273;BMP280;63869;52.344;16.928;2023-02-28T03:25:08;102264.88;;;0.64
75273;BMP280;63869;52.344;16.928;2023-02-28T03:27:42;102266.19;;;0.61
75273;BMP280;63869;52.344;16.928;2023-02-28T03:30:29;102267.28;;;0.60
75273;BMP280;63869;52.344;16.928;2023-02-28T03:35:37;102274.19;;;0.56
75273;BMP280;63869;52.344;16.928;2023-02-28T03:38:17;102271.84;;;0.55
75273;BMP280;63869;52.344;16.928;2023-02-28T03:40:48;102275.56;;;0.54
75273;BMP280;63869;52.344;16.928;2023-02-28T03:43:20;102277.69;;;0.52
75273;BMP280;63869;52.344;16.928;2023-02-28T03:45:50;102275.66;;;0.49
75273;BMP280;63869;52.344;16.928;2023-02-28T03:48:21;102275.34;;;0.50
75273;BMP280;63869;52.344;16.928;2023-02-28T03:50:49;102273.84;;;0.44
75273;BMP280;63869;52.344;16.928;2023-02-28T03:53:25;102276.78;;;0.43
75273;BMP280;63869;52.344;16.928;2023-02-28T03:56:07;102285.47;;;0.43
75273;BMP280;63869;52.344;16.928;2023-02-28T03:58:44;102280.97;;;0.44
75273;BMP280;63869;52.344;16.928;2023-02-28T04:01:15;102273.75;;;0.36
75273;BMP280;63869;52.344;16.928;2023-02-28T04:03:41;102277.94;;;0.37
75273;BMP280;63869;52.344;16.928;2023-02-28T04:06:14;102275.91;;;0.34
75273;BMP280;63869;52.344;16.928;2023-02-28T04:08:40;102286.91;;;0.36
75273;BMP280;63869;52.344;16.928;2023-02-28T04:11:36;102289.63;;;0.30
75273;BMP280;63869;52.344;16.928;2023-02-28T04:14:04;102283.38;;;0.26
75273;BMP280;63869;52.344;16.928;2023-02-28T04:16:31;102288.06;;;0.29
75273;BMP280;63869;52.344;16.928;2023-02-28T04:18:56;102293.34;;;0.29
75273;BMP280;63869;52.344;16.928;2023-02-28T04:21:28;102287.56;;;0.27
75273;BMP280;63869;52.344;16.928;2023-02-28T04:23:54;102284.75;;;0.24
75273;BMP280;63869;52.344;16.928;2023-02-28T04:26:19;102287.09;;;0.25
75273;BMP280;63869;52.344;16.928;2023-02-28T04:28:45;102294.69;;;0.27
75273;BMP280;63869;52.344;16.928;2023-02-28T04:31:10;102300.72;;;0.27
75273;BMP280;63869;52.344;16.928;2023-02-28T04:33:35;102307.34;;;0.25
75273;BMP280;63869;52.344;16.928;2023-02-28T04:36:06;102297.59;;;0.25
75273;BMP280;63869;52.344;16.928;2023-02-28T04:38:35;102306.84;;;0.23
75273;BMP280;63869;52.344;16.928;2023-02-28T04:41:01;102314.47;;;0.24
75273;BMP280;63869;52.344;16.928;2023-02-28T04:43:27;102314.47;;;0.24
75273;BMP280;63869;52.344;16.928;2023-02-28T04:45:53;102311.03;;;0.24
75273;BMP280;63869;52.344;16.928;2023-02-28T04:48:22;102309.78;;;0.21
75273;BMP280;63869;52.344;16.928;2023-02-28T04:50:47;102313.97;;;0.22
75273;BMP280;63869;52.344;16.928;2023-02-28T04:53:13;102315.03;;;0.21
75273;BMP280;63869;52.344;16.928;2023-02-28T04:55:38;102309.00;;;0.21
75273;BMP280;63869;52.344;16.928;2023-02-28T04:58:05;102310.34;;;0.18
75273;BMP280;63869;52.344;16.928;2023-02-28T05:00:30;102305.88;;;0.19
75273;BMP280;63869;52.344;16.928;2023-02-28T05:02:55;102311.97;;;0.14
75273;BMP280;63869;52.344;16.928;2023-02-28T05:05:21;102314.84;;;0.18
75273;BMP280;63869;52.344;16.928;2023-02-28T05:07:46;102326.13;;;0.18
75273;BMP280;63869;52.344;16.928;2023-02-28T05:10:11;102312.50;;;0.16
75273;BMP280;63869;52.344;16.928;2023-02-28T05:12:37;102308.34;;;0.10
75273;BMP280;63869;52.344;16.928;2023-02-28T05:15:04;102328.28;;;0.16
75273;BMP280;63869;52.344;16.928;2023-02-28T05:17:30;102320.94;;;0.13
75273;BMP280;63869;52.344;16.928;2023-02-28T05:19:55;102323.06;;;0.11
75273;BMP280;63869;52.344;16.928;2023-02-28T05:22:20;102332.72;;;0.16
75273;BMP280;63869;52.344;16.928;2023-02-28T05:24:46;102332.50;;;0.12
75273;BMP280;63869;52.344;16.928;2023-02-28T05:27:11;102323.63;;;0.08
75273;BMP280;63869;52.344;16.928;2023-02-28T05:29:36;102337.28;;;0.10
75273;BMP280;63869;52.344;16.928;2023-02-28T05:32:09;102332.81;;;0.11
75273;BMP280;63869;52.344;16.928;2023-02-28T05:34:36;102334.16;;;0.08
75273;BMP280;63869;52.344;16.928;2023-02-28T05:37:02;102333.88;;;0.10
75273;BMP280;63869;52.344;16.928;2023-02-28T05:39:27;102328.91;;;0.08
75273;BMP280;63869;52.344;16.928;2023-02-28T05:41:53;102333.94;;;0.05
75273;BMP280;63869;52.344;16.928;2023-02-28T05:44:18;102345.25;;;0.05
75273;BMP280;63869;52.344;16.928;2023-02-28T05:46:43;102350.72;;;0.09
75273;BMP280;63869;52.344;16.928;2023-02-28T05:49:09;102349.94;;;0.08
75273;BMP280;63869;52.344;16.928;2023-02-28T05:51:34;102358.59;;;0.09
75273;BMP280;63869;52.344;16.928;2023-02-28T05:54:01;102354.41;;;0.08
75273;BMP280;63869;52.344;16.928;2023-02-28T05:56:28;102358.59;;;0.09
75273;BMP280;63869;52.344;16.928;2023-02-28T05:58:53;102367.78;;;0.11
75273;BMP280;63869;52.344;16.928;2023-02-28T06:01:33;102353.84;;;0.11
75273;BMP280;63869;52.344;16.928;2023-02-28T06:03:59;102344.38;;;0.10
75273;BMP280;63869;52.344;16.928;2023-02-28T06:06:27;102349.84;;;0.13
75273;BMP280;63869;52.344;16.928;2023-02-28T06:08:52;102350.63;;;0.14
75273;BMP280;63869;52.344;16.928;2023-02-28T06:11:18;102366.06;;;0.20
75273;BMP280;63869;52.344;16.928;2023-02-28T06:13:46;102365.28;;;0.20
75273;BMP280;63869;52.344;16.928;2023-02-28T06:16:11;102370.19;;;0.26
75273;BMP280;63869;52.344;16.928;2023-02-28T06:18:37;102363.38;;;0.25
75273;BMP280;63869;52.344;16.928;2023-02-28T06:21:03;102372.94;;;0.35
75273;BMP280;63869;52.344;16.928;2023-02-28T06:23:28;102373.13;;;0.39
75273;BMP280;63869;52.344;16.928;2023-02-28T06:25:53;102371.59;;;0.38
75273;BMP280;63869;52.344;16.928;2023-02-28T06:28:22;102373.09;;;0.25
75273;BMP280;63869;52.344;16.928;2023-02-28T06:30:48;102373.53;;;0.13
75273;BMP280;63869;52.344;16.928;2023-02-28T06:33:13;102373.09;;;0.06
75273;BMP280;63869;52.344;16.928;2023-02-28T06:35:39;102370.81;;;-0.01
75273;BMP280;63869;52.344;16.928;2023-02-28T06:38:04;102366.97;;;-0.08
75273;BMP280;63869;52.344;16.928;2023-02-28T06:40:29;102370.97;;;-0.11
75273;BMP280;63869;52.344;16.928;2023-02-28T06:42:59;102376.78;;;-0.14
75273;BMP280;63869;52.344;16.928;2023-02-28T06:45:24;102370.56;;;-0.23
75273;BMP280;63869;52.344;16.928;2023-02-28T06:47:51;102372.00;;;-0.31
75273;BMP280;63869;52.344;16.928;2023-02-28T06:50:17;102371.94;;;-0.25
75273;BMP280;63869;52.344;16.928;2023-02-28T06:52:46;102376.41;;;-0.26
75273;BMP280;63869;52.344;16.928;2023-02-28T06:55:11;102371.44;;;-0.27
75273;BMP280;63869;52.344;16.928;2023-02-28T06:57:36;102370.09;;;-0.25
75273;BMP280;63869;52.344;16.928;2023-02-28T07:00:09;102374.78;;;-0.22
75273;BMP280;63869;52.344;16.928;2023-02-28T07:02:37;102374.97;;;-0.18
75273;BMP280;63869;52.344;16.928;2023-02-28T07:05:06;102384.22;;;-0.21
75273;BMP280;63869;52.344;16.928;2023-02-28T07:07:32;102381.44;;;-0.29
75273;BMP280;63869;52.344;16.928;2023-02-28T07:09:57;102385.13;;;-0.31
75273;BMP280;63869;52.344;16.928;2023-02-28T07:12:22;102383.22;;;-0.25
75273;BMP280;63869;52.344;16.928;2023-02-28T07:14:48;102390.72;;;-0.13
75273;BMP280;63869;52.344;16.928;2023-02-28T07:17:13;102385.16;;;-0.12
75273;BMP280;63869;52.344;16.928;2023-02-28T07:19:39;102380.53;;;-0.01
75273;BMP280;63869;52.344;16.928;2023-02-28T07:22:05;102377.09;;;0.04
75273;BMP280;63869;52.344;16.928;2023-02-28T07:24:30;102374.00;;;0.15
75273;BMP280;63869;52.344;16.928;2023-02-28T07:26:56;102380.50;;;0.23
75273;BMP280;63869;52.344;16.928;2023-02-28T07:29:21;102381.44;;;0.32
75273;BMP280;63869;52.344;16.928;2023-02-28T07:31:47;102386.22;;;0.44
75273;BMP280;63869;52.344;16.928;2023-02-28T07:34:13;102390.25;;;0.55
75273;BMP280;63869;52.344;16.928;2023-02-28T07:36:39;102392.81;;;0.60
75273;BMP280;63869;52.344;16.928;2023-02-28T07:39:04;102384.34;;;0.63
75273;BMP280;63869;52.344;16.928;2023-02-28T07:41:30;102387.88;;;0.72
75273;BMP280;63869;52.344;16.928;2023-02-28T07:43:58;102391.16;;;0.83
75273;BMP280;63869;52.344;16.928;2023-02-28T07:46:25;102392.63;;;0.89
75273;BMP280;63869;52.344;16.928;2023-02-28T07:48:51;102387.97;;;1.00
75273;BMP280;63869;52.344;16.928;2023-02-28T07:51:16;102387.09;;;1.04
75273;BMP280;63869;52.344;16.928;2023-02-28T07:53:41;102394.81;;;1.14
75273;BMP280;63869;52.344;16.928;2023-02-28T07:56:07;102396.00;;;1.22
75273;BMP280;63869;52.344;16.928;2023-02-28T07:58:33;102406.16;;;1.29
75273;BMP280;63869;52.344;16.928;2023-02-28T08:01:05;102403.59;;;1.37
75273;BMP280;63869;52.344;16.928;2023-02-28T08:03:31;102409.66;;;1.38
75273;BMP280;63869;52.344;16.928;2023-02-28T08:05:56;102410.34;;;1.43
75273;BMP280;63869;52.344;16.928;2023-02-28T08:08:21;102409.66;;;1.51
75273;BMP280;63869;52.344;16.928;2023-02-28T08:10:47;102402.16;;;1.59
75273;BMP280;63869;52.344;16.928;2023-02-28T08:13:13;102402.53;;;1.66
75273;BMP280;63869;52.344;16.928;2023-02-28T08:15:41;102403.44;;;1.75
75273;BMP280;63869;52.344;16.928;2023-02-28T08:18:06;102402.72;;;1.83
75273;BMP280;63869;52.344;16.928;2023-02-28T08:20:31;102399.94;;;1.88
75273;BMP280;63869;52.344;16.928;2023-02-28T08:22:57;102407.34;;;2.00
75273;BMP280;63869;52.344;16.928;2023-02-28T08:25:22;102393.56;;;2.03
75273;BMP280;63869;52.344;16.928;2023-02-28T08:27:50;102395.03;;;2.09
75273;BMP280;63869;52.344;16.928;2023-02-28T08:30:16;102395.69;;;2.14
75273;BMP280;63869;52.344;16.928;2023-02-28T08:32:41;102397.16;;;2.21
75273;BMP280;63869;52.344;16.928;2023-02-28T08:35:07;102388.66;;;2.24
75273;BMP280;63869;52.344;16.928;2023-02-28T08:37:34;102392.25;;;2.28
75273;BMP280;63869;52.344;16.928;2023-02-28T08:39:59;102397.56;;;2.36
75273;BMP280;63869;52.344;16.928;2023-02-28T08:42:25;102396.38;;;2.42
75273;BMP280;63869;52.344;16.928;2023-02-28T08:44:50;102402.00;;;2.50
75273;BMP280;63869;52.344;16.928;2023-02-28T08:47:15;102400.22;;;2.59
75273;BMP280;63869;52.344;16.928;2023-02-28T08:49:41;102392.31;;;2.59
75273;BMP280;63869;52.344;16.928;2023-02-28T08:52:06;102398.88;;;2.70
75273;BMP280;63869;52.344;16.928;2023-02-28T08:54:32;102397.38;;;2.78
75273;BMP280;63869;52.344;16.928;2023-02-28T08:56:59;102397.81;;;2.71
75273;BMP280;63869;52.344;16.928;2023-02-28T08:59:24;102401.69;;;2.73
75273;BMP280;63869;52.344;16.928;2023-02-28T09:01:50;102398.44;;;2.76
75273;BMP280;63869;52.344;16.928;2023-02-28T09:04:15;102393.31;;;2.71
75273;BMP280;63869;52.344;16.928;2023-02-28T09:06:40;102397.38;;;2.78
75273;BMP280;63869;52.344;16.928;2023-02-28T09:09:06;102398.38;;;2.90
75273;BMP280;63869;52.344;16.928;2023-02-28T09:11:32;102394.50;;;2.96
75273;BMP280;63869;52.344;16.928;2023-02-28T09:13:58;102380.41;;;3.01
75273;BMP280;63869;52.344;16.928;2023-02-28T09:16:25;102392.84;;;3.09
75273;BMP280;63869;52.344;16.928;2023-02-28T09:18:52;102392.44;;;3.16
75273;BMP280;63869;52.344;16.928;2023-02-28T09:21:19;102391.66;;;3.24
75273;BMP280;63869;52.344;16.928;2023-02-28T09:23:46;102397.00;;;3.32
75273;BMP280;63869;52.344;16.928;2023-02-28T09:26:19;102395.63;;;3.44
75273;BMP280;63869;52.344;16.928;2023-02-28T09:28:45;102387.69;;;3.44
75273;BMP280;63869;52.344;16.928;2023-02-28T09:31:23;102391.59;;;3.55
75273;BMP280;63869;52.344;16.928;2023-02-28T09:33:50;102395.31;;;3.62
75273;BMP280;63869;52.344;16.928;2023-02-28T09:36:16;102400.19;;;3.69
75273;BMP280;63869;52.344;16.928;2023-02-28T09:38:41;102400.66;;;3.80
75273;BMP280;63869;52.344;16.928;2023-02-28T09:41:20;102407.03;;;3.87
75273;BMP280;63869;52.344;16.928;2023-02-28T09:43:50;102400.19;;;3.86
75273;BMP280;63869;52.344;16.928;2023-02-28T09:46:35;102403.66;;;3.95
75273;BMP280;63869;52.344;16.928;2023-02-28T09:49:10;102397.84;;;4.02
75273;BMP280;63869;52.344;16.928;2023-02-28T09:51:46;102401.13;;;4.08
75273;BMP280;63869;52.344;16.928;2023-02-28T09:54:20;102409.53;;;4.10
75273;BMP280;63869;52.344;16.928;2023-02-28T09:56:53;102408.31;;;4.16
75273;BMP280;63869;52.344;16.928;2023-02-28T09:59:42;102411.69;;;4.25
75273;BMP280;63869;52.344;16.928;2023-02-28T10:10:34;102417.59;;;4.39
75273;BMP280;63869;52.344;16.928;2023-02-28T10:13:05;102421.66;;;4.45
75273;BMP280;63869;52.344;16.928;2023-02-28T10:15:33;102415.28;;;4.46
75273;BMP280;63869;52.344;16.928;2023-02-28T10:18:05;102412.78;;;4.50
75273;BMP280;63869;52.344;16.928;2023-02-28T10:20:34;102416.66;;;4.52
75273;BMP280;63869;52.344;16.928;2023-02-28T10:25:28;102411.94;;;4.66
75273;BMP280;63869;52.344;16.928;2023-02-28T10:27:58;102411.75;;;4.80
75273;BMP280;63869;52.344;16.928;2023-02-28T10:30:25;102415.47;;;4.88
75273;BMP280;63869;52.344;16.928;2023-02-28T10:32:53;102410.66;;;4.90
75273;BMP280;63869;52.344;16.928;2023-02-28T10:35:22;102412.19;;;4.91
75273;BMP280;63869;52.344;16.928;2023-02-28T10:37:58;102412.06;;;4.79
75273;BMP280;63869;52.344;16.928;2023-02-28T10:45:51;102403.63;;;5.15
75273;BMP280;63869;52.344;16.928;2023-02-28T10:50:44;102388.72;;;5.31
75273;BMP280;63869;52.344;16.928;2023-02-28T10:53:15;102393.69;;;5.41
75273;BMP280;63869;52.344;16.928;2023-02-28T10:55:42;102390.03;;;5.46
75273;BMP280;63869;52.344;16.928;2023-02-28T10:58:21;102383.94;;;5.54
75273;BMP280;63869;52.344;16.928;2023-02-28T11:00:47;102374.88;;;5.55
75273;BMP280;63869;52.344;16.928;2023-02-28T11:03:43;102373.22;;;5.62
75273;BMP280;63869;52.344;16.928;2023-02-28T11:06:21;102365.88;;;5.68
75273;BMP280;63869;52.344;16.928;2023-02-28T11:08:50;102369.75;;;5.71
75273;BMP280;63869;52.344;16.928;2023-02-28T11:11:17;102366.78;;;5.72
75273;BMP280;63869;52.344;16.928;2023-02-28T11:13:44;102364.56;;;5.74
75273;BMP280;63869;52.344;16.928;2023-02-28T11:16:12;102372.44;;;5.83
75273;BMP280;63869;52.344;16.928;2023-02-28T11:18:48;102362.75;;;5.87
75273;BMP280;63869;52.344;16.928;2023-02-28T11:21:21;102367.28;;;5.86
75273;BMP280;63869;52.344;16.928;2023-02-28T11:23:51;102366.50;;;5.86
75273;BMP280;63869;52.344;16.928;2023-02-28T11:29:11;102363.63;;;5.91
75273;BMP280;63869;52.344;16.928;2023-02-28T11:31:37;102357.78;;;5.97
75273;BMP280;63869;52.344;16.928;2023-02-28T11:34:22;102362.16;;;6.02
75273;BMP280;63869;52.344;16.928;2023-02-28T11:36:48;102360.03;;;6.08
75273;BMP280;63869;52.344;16.928;2023-02-28T11:39:15;102351.09;;;6.12
75273;BMP280;63869;52.344;16.928;2023-02-28T11:44:53;102356.53;;;6.28
75273;BMP280;63869;52.344;16.928;2023-02-28T11:47:48;102353.69;;;6.33
75273;BMP280;63869;52.344;16.928;2023-02-28T11:50:16;102360.22;;;6.36
75273;BMP280;63869;52.344;16.928;2023-02-28T11:53:35;102348.59;;;6.40
75273;BMP280;63869;52.344;16.928;2023-02-28T11:56:06;102342.50;;;6.40
75273;BMP280;63869;52.344;16.928;2023-02-28T12:06:45;102334.34;;;6.57
75273;BMP280;63869;52.344;16.928;2023-02-28T12:15:13;102323.44;;;6.62
75273;BMP280;63869;52.344;16.928;2023-02-28T12:17:50;102324.88;;;6.59
75273;BMP280;63869;52.344;16.928;2023-02-28T12:26:38;102313.84;;;6.94
75273;BMP280;63869;52.344;16.928;2023-02-28T12:31:40;102300.69;;;7.13
75273;BMP280;63869;52.344;16.928;2023-02-28T12:34:13;102314.06;;;7.29
75273;BMP280;63869;52.344;16.928;2023-02-28T12:36:41;102306.16;;;7.45
75273;BMP280;63869;52.344;16.928;2023-02-28T12:39:20;102302.72;;;7.60
75273;BMP280;63869;52.344;16.928;2023-02-28T12:41:53;102300.19;;;7.79
75273;BMP280;63869;52.344;16.928;2023-02-28T12:44:33;102305.19;;;7.97
75273;BMP280;63869;52.344;16.928;2023-02-28T12:47:04;102302.59;;;8.16
75273;BMP280;63869;52.344;16.928;2023-02-28T12:49:36;102292.34;;;8.34
75273;BMP280;63869;52.344;16.928;2023-02-28T12:52:03;102297.34;;;8.35
75273;BMP280;63869;52.344;16.928;2023-02-28T12:57:35;102289.72;;;8.69
75273;BMP280;63869;52.344;16.928;2023-02-28T13:00:10;102283.72;;;8.91
75273;BMP280;63869;52.344;16.928;2023-02-28T13:08:10;102285.66;;;9.32
75273;BMP280;63869;52.344;16.928;2023-02-28T13:10:46;102290.81;;;9.45
75273;BMP280;63869;52.344;16.928;2023-02-28T13:13:18;102281.00;;;9.49
75273;BMP280;63869;52.344;16.928;2023-02-28T13:16:03;102278.88;;;9.58
75273;BMP280;63869;52.344;16.928;2023-02-28T13:18:43;102279.78;;;9.65
75273;BMP280;63869;52.344;16.928;2023-02-28T13:21:22;102280.16;;;9.90
75273;BMP280;63869;52.344;16.928;2023-02-28T13:27:10;102268.63;;;10.39
75273;BMP280;63869;52.344;16.928;2023-02-28T13:34:34;102259.41;;;10.96
75273;BMP280;63869;52.344;16.928;2023-02-28T13:39:55;102258.94;;;11.28
75273;BMP280;63869;52.344;16.928;2023-02-28T13:59:23;102252.16;;;12.68
75273;BMP280;63869;52.344;16.928;2023-02-28T14:02:03;102238.31;;;12.59
75273;BMP280;63869;52.344;16.928;2023-02-28T14:04:53;102236.78;;;12.58
75273;BMP280;63869;52.344;16.928;2023-02-28T14:07:30;102235.22;;;12.50
75273;BMP280;63869;52.344;16.928;2023-02-28T14:10:01;102226.03;;;12.58
75273;BMP280;63869;52.344;16.928;2023-02-28T14:17:59;102228.28;;;12.42
75273;BMP280;63869;52.344;16.928;2023-02-28T14:20:29;102218.31;;;12.39
75273;BMP280;63869;52.344;16.928;2023-02-28T14:23:33;102225.28;;;12.47
75273;BMP280;63869;52.344;16.928;2023-02-28T14:26:13;102225.66;;;12.53
75273;BMP280;63869;52.344;16.928;2023-02-28T14:31:43;102233.72;;;12.60
75273;BMP280;63869;52.344;16.928;2023-02-28T14:36:52;102228.38;;;12.63
75273;BMP280;63869;52.344;16.928;2023-02-28T14:39:22;102223.00;;;12.67
75273;BMP280;63869;52.344;16.928;2023-02-28T14:41:49;102218.38;;;12.60
75273;BMP280;63869;52.344;16.928;2023-02-28T14:44:21;102214.13;;;12.56
75273;BMP280;63869;52.344;16.928;2023-02-28T14:46:50;102208.44;;;12.68
75273;BMP280;63869;52.344;16.928;2023-02-28T14:49:27;102208.50;;;12.93
75273;BMP280;63869;52.344;16.928;2023-02-28T14:52:14;102207.34;;;13.08
75273;BMP280;63869;52.344;16.928;2023-02-28T14:54:41;102203.50;;;13.12
75273;BMP280;63869;52.344;16.928;2023-02-28T14:57:21;102210.41;;;13.10
75273;BMP280;63869;52.344;16.928;2023-02-28T15:00:13;102206.56;;;13.18
75273;BMP280;63869;52.344;16.928;2023-02-28T15:02:39;102214.63;;;13.32
75273;BMP280;63869;52.344;16.928;2023-02-28T15:07:48;102216.16;;;13.19
75273;BMP280;63869;52.344;16.928;2023-02-28T15:10:24;102213.47;;;13.01
75273;BMP280;63869;52.344;16.928;2023-02-28T15:13:05;102214.59;;;12.90
75273;BMP280;63869;52.344;16.928;2023-02-28T15:15:54;102206.94;;;12.88
75273;BMP280;63869;52.344;16.928;2023-02-28T15:21:00;102204.59;;;12.69
75273;BMP280;63869;52.344;16.928;2023-02-28T15:23:27;102203.06;;;12.64
75273;BMP280;63869;52.344;16.928;2023-02-28T15:25:54;102199.25;;;12.62
75273;BMP280;63869;52.344;16.928;2023-02-28T15:28:22;102186.91;;;12.50
75273;BMP280;63869;52.344;16.928;2023-02-28T15:31:00;102183.38;;;12.28
75273;BMP280;63869;52.344;16.928;2023-02-28T15:33:33;102191.00;;;12.12
75273;BMP280;63869;52.344;16.928;2023-02-28T15:36:15;102185.19;;;11.99
75273;BMP280;63869;52.344;16.928;2023-02-28T15:38:43;102177.84;;;11.86
75273;BMP280;63869;52.344;16.928;2023-02-28T15:43:49;102190.69;;;11.59
75273;BMP280;63869;52.344;16.928;2023-02-28T15:46:14;102207.16;;;11.54
75273;BMP280;63869;52.344;16.928;2023-02-28T15:48:44;102201.66;;;11.39
75273;BMP280;63869;52.344;16.928;2023-02-28T15:51:17;102203.88;;;11.30
75273;BMP280;63869;52.344;16.928;2023-02-28T15:53:59;102205.28;;;11.14
75273;BMP280;63869;52.344;16.928;2023-02-28T15:56:30;102209.66;;;10.92
75273;BMP280;63869;52.344;16.928;2023-02-28T15:59:01;102213.34;;;10.77
75273;BMP280;63869;52.344;16.928;2023-02-28T16:01:35;102207.78;;;10.62
75273;BMP280;63869;52.344;16.928;2023-02-28T16:04:14;102207.69;;;10.52
75273;BMP280;63869;52.344;16.928;2023-02-28T16:06:41;102211.13;;;10.22
75273;BMP280;63869;52.344;16.928;2023-02-28T16:09:10;102208.13;;;9.97
75273;BMP280;63869;52.344;16.928;2023-02-28T16:11:40;102210.31;;;9.65
75273;BMP280;63869;52.344;16.928;2023-02-28T16:14:12;102220.03;;;9.31